Search for airport 
image banner adimage banner adimage banner ad
image banner ad

4PS8 - Coatesville

Located in Coatesville, United States

ICAO - 4PS8, IATA -

Data provided by Airmate  

General information

Coordinates: N39°53'36" W75°49'6"
Elevation is 564 feet MSL.
 
View others Airports in Pennsylvania

Operational data

Special qualification required
Current time UTC:
Current local time:
Weather at : KMQS - Chester County G O Carlson ( 10 km )
METAR: KMQS 061155Z AUTO 32009KT 10SM CLR 09/04 A3003 RMK AO2
View NOTAMs / SUP AIP / TFR affecting this airport [VIEW]
Communications frequencies: [VIEW]

Runways:

Airport contact information

Address: Coatesville United States

Satellite view of 4PS8